createdAt,value
2024-01-01T00:01:57.140Z,14.75
2024-01-01T00:04:25.570Z,21.80
2024-01-01T00:06:52.346Z,15.77
2024-01-01T00:09:18.902Z,16.00
2024-01-01T00:11:46.202Z,22.08
2024-01-01T00:14:13.811Z,15.77
2024-01-01T00:16:40.563Z,13.68
2024-01-01T00:19:07.332Z,21.02
2024-01-01T00:21:33.997Z,16.42
2024-01-01T00:24:00.554Z,14.63
2024-01-01T00:26:27.058Z,18.45
2024-01-01T00:28:53.647Z,12.52
2024-01-01T00:31:20.192Z,10.02
2024-01-01T00:33:46.814Z,14.23
2024-01-01T00:36:13.381Z,12.63
2024-01-01T00:38:40.007Z,13.73
2024-01-01T00:41:06.664Z,6.95
2024-01-01T00:43:34.989Z,12.43
2024-01-01T00:46:01.514Z,16.20
2024-01-01T00:48:28.121Z,8.93
2024-01-01T00:50:54.784Z,8.98
2024-01-01T00:53:21.376Z,7.88
2024-01-01T00:55:48.045Z,16.20
2024-01-01T00:58:14.722Z,8.68
2024-01-01T01:00:41.945Z,12.85
2024-01-01T01:03:08.542Z,11.48
2024-01-01T01:05:35.311Z,4.63
2024-01-01T01:08:02.006Z,8.25
2024-01-01T01:10:28.612Z,9.15
2024-01-01T01:12:55.288Z,12.63
2024-01-01T01:15:25.485Z,13.80
2024-01-01T01:17:52.166Z,9.93
2024-01-01T01:20:19.938Z,10.63
2024-01-01T01:22:46.532Z,8.80
2024-01-01T01:25:13.952Z,14.38
2024-01-01T01:27:43.685Z,10.18
2024-01-01T01:30:11.013Z,10.93
2024-01-01T01:32:38.699Z,10.73
2024-01-01T01:35:06.017Z,14.23
2024-01-01T01:37:33.727Z,13.57
2024-01-01T01:40:00.674Z,8.90
2024-01-01T01:42:27.261Z,13.40
2024-01-01T01:44:53.769Z,10.80
2024-01-01T01:47:20.521Z,10.15
2024-01-01T01:49:47.698Z,12.82
2024-01-01T01:52:14.372Z,14.57
2024-01-01T01:54:41.282Z,8.40
2024-01-01T01:57:08.339Z,9.95
2024-01-01T01:59:35.563Z,10.82
2024-01-01T02:02:02.310Z,14.70
2024-01-01T02:04:29.862Z,8.70
2024-01-01T02:06:56.431Z,9.18
2024-01-01T02:09:23.098Z,11.07
2024-01-01T02:11:49.642Z,12.15
2024-01-01T02:14:16.541Z,10.98
2024-01-01T02:16:44.254Z,12.55
2024-01-01T02:19:22.260Z,9.35
2024-01-01T02:21:51.144Z,11.70
2024-01-01T02:24:18.029Z,14.95
2024-01-01T02:26:45.828Z,9.95
2024-01-01T02:29:13.201Z,15.32
2024-01-01T02:31:39.806Z,9.77
2024-01-01T02:34:06.570Z,13.82
2024-01-01T02:36:37.208Z,17.33
2024-01-01T02:39:05.103Z,14.48
2024-01-01T02:41:36.455Z,15.35
2024-01-01T02:44:04.669Z,8.27
2024-01-01T02:46:31.756Z,14.27
2024-01-01T02:48:58.437Z,16.15
2024-01-01T02:51:24.979Z,16.05
2024-01-01T02:53:51.508Z,17.90
2024-01-01T02:56:19.410Z,16.85
2024-01-01T02:58:47.316Z,17.48
2024-01-01T03:01:13.895Z,19.13
2024-01-01T03:03:40.602Z,16.05
2024-01-01T03:06:10.434Z,18.33
2024-01-01T03:08:38.464Z,14.63
2024-01-01T03:11:06.048Z,13.95
2024-01-01T03:13:33.250Z,14.10
2024-01-01T03:16:00.960Z,19.02
2024-01-01T03:18:27.957Z,12.23
2024-01-01T03:20:54.863Z,17.08
2024-01-01T03:23:21.511Z,13.60
2024-01-01T03:25:48.405Z,13.20
2024-01-01T03:28:15.083Z,17.73
2024-01-01T03:30:41.732Z,14.80
2024-01-01T03:33:08.338Z,13.80
2024-01-01T03:35:34.943Z,14.05
2024-01-01T03:38:02.334Z,11.50
2024-01-01T03:40:29.070Z,14.95
2024-01-01T03:42:55.642Z,11.93
2024-01-01T03:45:22.185Z,11.43
2024-01-01T03:47:49.026Z,12.63
2024-01-01T03:50:17.553Z,11.63
2024-01-01T03:52:44.258Z,17.50
2024-01-01T03:55:10.952Z,18.48
2024-01-01T03:57:37.675Z,16.40
2024-01-01T04:00:07.237Z,14.02
2024-01-01T04:02:35.510Z,18.27
2024-01-01T04:05:02.318Z,14.98
2024-01-01T04:07:29.465Z,19.17
2024-01-01T04:09:56.013Z,16.25
2024-01-01T04:12:22.616Z,14.45
2024-01-01T04:14:49.182Z,18.55
2024-01-01T04:17:15.778Z,12.55
2024-01-01T04:19:45.857Z,12.27
2024-01-01T04:22:13.412Z,14.38
2024-01-01T04:24:40.480Z,14.43
2024-01-01T04:27:07.040Z,17.38
2024-01-01T04:29:33.615Z,16.50
2024-01-01T04:32:00.286Z,15.30
2024-01-01T04:34:26.895Z,15.13
2024-01-01T04:36:53.433Z,16.83
2024-01-01T04:39:19.945Z,17.05
2024-01-01T04:41:47.004Z,13.73
2024-01-01T04:44:13.612Z,12.52
2024-01-01T04:46:40.157Z,17.73
2024-01-01T04:49:06.920Z,15.10
2024-01-01T04:51:33.484Z,12.80
2024-01-01T04:53:59.979Z,13.40
2024-01-01T04:56:26.538Z,10.43
2024-01-01T04:58:54.126Z,21.98
2024-01-01T05:01:20.805Z,14.45
2024-01-01T05:03:47.340Z,17.38
2024-01-01T05:06:13.889Z,17.08
2024-01-01T05:08:40.405Z,22.65
2024-01-01T05:11:07.006Z,13.55
2024-01-01T05:13:33.681Z,14.35
2024-01-01T05:16:00.222Z,24.02
2024-01-01T05:18:26.794Z,19.02
2024-01-01T05:20:53.382Z,15.23
2024-01-01T05:23:19.917Z,17.88
2024-01-01T05:25:46.496Z,18.33
2024-01-01T05:28:13.119Z,13.93
2024-01-01T05:30:40.664Z,12.80
2024-01-01T05:33:07.302Z,20.13
2024-01-01T05:35:33.961Z,18.45
2024-01-01T05:38:00.555Z,12.75
2024-01-01T05:40:27.193Z,15.25
2024-01-01T05:42:54.172Z,12.60
2024-01-01T05:45:20.732Z,17.52
2024-01-01T05:47:47.254Z,15.63
2024-01-01T05:50:13.882Z,14.23
2024-01-01T05:52:40.845Z,17.13
2024-01-01T05:55:07.807Z,26.50
2024-01-01T05:57:34.336Z,13.93
2024-01-01T06:00:00.890Z,13.60
2024-01-01T06:02:27.585Z,9.30
2024-01-01T06:04:54.227Z,13.30
2024-01-01T06:07:20.769Z,9.02
2024-01-01T06:09:47.323Z,14.20
2024-01-01T06:12:13.893Z,11.45
2024-01-01T06:14:40.424Z,14.82
2024-01-01T06:17:07.012Z,10.88
2024-01-01T06:19:33.618Z,17.15
2024-01-01T06:22:00.132Z,15.38
2024-01-01T06:24:26.675Z,21.20
2024-01-01T06:26:53.306Z,14.85
2024-01-01T06:29:19.908Z,13.15
2024-01-01T06:31:46.485Z,12.88
2024-01-01T06:34:13.005Z,13.40
2024-01-01T06:36:39.559Z,18.08
2024-01-01T06:39:06.122Z,17.92
2024-01-01T06:41:32.678Z,15.02
2024-01-01T06:43:59.228Z,11.45
2024-01-01T06:46:25.743Z,13.10
2024-01-01T06:48:52.361Z,11.32
2024-01-01T06:51:18.933Z,9.25
2024-01-01T06:53:45.455Z,12.55
2024-01-01T06:56:14.400Z,13.55
2024-01-01T06:58:41.812Z,16.05
2024-01-01T07:01:08.725Z,11.60
2024-01-01T07:03:35.349Z,11.80
2024-01-01T07:06:02.026Z,15.13
2024-01-01T07:08:29.043Z,15.05
2024-01-01T07:10:55.739Z,11.70
2024-01-01T07:13:22.300Z,8.98
2024-01-01T07:15:49.088Z,12.82
2024-01-01T07:18:18.075Z,12.98
2024-01-01T07:20:47.968Z,10.00
2024-01-01T07:23:14.470Z,12.98
2024-01-01T07:25:41.148Z,7.68
2024-01-01T07:28:09.177Z,5.55
2024-01-01T07:30:36.844Z,8.35
2024-01-01T07:33:04.564Z,5.15
2024-01-01T07:35:31.450Z,9.95
2024-01-01T07:37:58.928Z,5.45
2024-01-01T07:40:25.628Z,7.28
2024-01-01T07:42:52.231Z,7.90
2024-01-01T07:45:18.890Z,6.53
2024-01-01T07:47:46.282Z,9.27
2024-01-01T07:50:12.843Z,4.53
2024-01-01T07:52:39.433Z,5.07
2024-01-01T07:55:07.642Z,8.73
2024-01-01T07:57:34.491Z,11.38
2024-01-01T08:00:01.033Z,7.72
2024-01-01T08:02:27.740Z,7.47
2024-01-01T08:04:55.072Z,6.82
2024-01-01T08:07:23.072Z,5.57
2024-01-01T08:09:49.588Z,5.15
2024-01-01T08:12:16.158Z,7.32
2024-01-01T08:14:42.866Z,3.28
2024-01-01T08:17:09.889Z,6.00
2024-01-01T08:19:36.827Z,7.30
2024-01-01T08:22:03.769Z,8.57
2024-01-01T08:24:30.303Z,5.05
2024-01-01T08:26:57.234Z,7.78
2024-01-01T08:29:23.766Z,5.22
2024-01-01T08:31:50.329Z,5.20
2024-01-01T08:34:16.837Z,5.97
2024-01-01T08:36:43.339Z,6.78
2024-01-01T08:39:11.046Z,5.43
2024-01-01T08:41:47.134Z,7.63
2024-01-01T08:44:13.711Z,3.70
2024-01-01T08:46:41.219Z,4.93
2024-01-01T08:49:08.451Z,5.82
2024-01-01T08:51:37.024Z,5.68
2024-01-01T08:54:06.768Z,5.93
2024-01-01T08:56:33.582Z,4.18
2024-01-01T08:59:01.299Z,8.63
2024-01-01T09:01:28.021Z,6.32
2024-01-01T09:03:57.651Z,9.35
2024-01-01T09:06:24.779Z,9.90
2024-01-01T09:08:51.475Z,6.20
2024-01-01T09:11:18.269Z,5.55
2024-01-01T09:13:45.074Z,4.15
2024-01-01T09:16:11.638Z,6.70
2024-01-01T09:18:39.352Z,8.00
2024-01-01T09:21:06.473Z,8.45
2024-01-01T09:23:33.059Z,8.27
2024-01-01T09:26:00.443Z,8.00
2024-01-01T09:28:27.801Z,7.00
2024-01-01T09:30:56.222Z,3.42
2024-01-01T09:33:22.929Z,4.57
2024-01-01T09:35:49.632Z,6.63
2024-01-01T09:38:17.776Z,7.20
2024-01-01T09:40:44.958Z,4.20
2024-01-01T09:43:19.234Z,7.22
2024-01-01T09:45:49.276Z,7.13
2024-01-01T09:48:16.381Z,8.88
2024-01-01T09:50:49.573Z,7.70
2024-01-01T09:53:18.517Z,8.98
2024-01-01T09:55:52.802Z,7.65
2024-01-01T09:58:19.935Z,10.43
2024-01-01T10:00:46.533Z,10.05
2024-01-01T10:03:13.259Z,7.50
2024-01-01T10:05:41.810Z,7.50
2024-01-01T10:08:13.573Z,4.75
2024-01-01T10:10:40.910Z,8.98
2024-01-01T10:13:16.838Z,10.18
2024-01-01T10:15:44.456Z,6.28
2024-01-01T10:18:13.240Z,6.65
2024-01-01T10:20:40.686Z,6.95
2024-01-01T10:23:26.724Z,12.20
2024-01-01T10:26:07.496Z,11.38
2024-01-01T10:28:34.957Z,8.20
2024-01-01T10:31:03.093Z,13.75
2024-01-01T10:33:30.833Z,11.85
2024-01-01T10:36:03.098Z,7.30
2024-01-01T10:38:31.856Z,9.95
2024-01-01T10:41:00.030Z,8.85
2024-01-01T10:43:29.167Z,8.50
2024-01-01T10:46:02.956Z,7.38
2024-01-01T10:48:31.300Z,8.45
2024-01-01T10:51:29.450Z,12.32
2024-01-01T10:54:20.132Z,8.15
2024-01-01T10:57:02.102Z,9.23
2024-01-01T10:59:40.289Z,7.50
2024-01-01T11:02:07.597Z,8.15
2024-01-01T11:04:34.138Z,9.68
2024-01-01T11:07:03.375Z,10.95
2024-01-01T11:09:30.806Z,14.15
2024-01-01T11:11:57.674Z,8.65
2024-01-01T11:14:46.572Z,5.50
2024-01-01T11:17:13.484Z,6.63
2024-01-01T11:19:44.277Z,10.70
2024-01-01T11:22:33.324Z,3.88
2024-01-01T11:25:01.080Z,12.23
2024-01-01T11:27:32.987Z,11.20
2024-01-01T11:30:02.531Z,7.00
2024-01-01T11:32:29.615Z,6.90
2024-01-01T11:35:27.005Z,10.02
2024-01-01T11:37:59.151Z,7.38
2024-01-01T11:40:29.281Z,7.53
2024-01-01T11:43:06.902Z,15.00
2024-01-01T11:45:35.607Z,5.90
2024-01-01T11:48:06.753Z,8.95
2024-01-01T11:50:33.417Z,9.02
2024-01-01T11:53:01.571Z,9.90
2024-01-01T11:55:28.282Z,16.73
2024-01-01T11:57:55.246Z,9.73
2024-01-01T12:00:22.570Z,8.20
2024-01-01T12:02:49.467Z,8.05
2024-01-01T12:05:21.277Z,10.23
2024-01-01T12:07:48.392Z,9.45
2024-01-01T12:10:17.712Z,7.95
2024-01-01T12:12:45.705Z,7.47
2024-01-01T12:15:14.656Z,11.00
2024-01-01T12:17:47.499Z,7.68
2024-01-01T12:20:20.252Z,8.70
2024-01-01T12:22:49.797Z,11.18
2024-01-01T12:25:18.088Z,10.55
2024-01-01T12:27:45.824Z,13.65
2024-01-01T12:30:28.938Z,18.52
2024-01-01T12:32:55.989Z,14.55
2024-01-01T12:35:22.903Z,12.00
2024-01-01T12:37:49.695Z,16.60
2024-01-01T12:40:16.507Z,14.48
2024-01-01T12:42:43.397Z,20.95
2024-01-01T12:45:10.306Z,10.43
2024-01-01T12:47:36.876Z,15.52
2024-01-01T12:50:03.885Z,15.68
2024-01-01T12:52:30.504Z,15.75
2024-01-01T12:54:57.053Z,15.55
2024-01-01T12:57:23.621Z,13.18
2024-01-01T12:59:50.138Z,19.88
2024-01-01T13:02:16.786Z,18.33
2024-01-01T13:04:43.498Z,13.20
2024-01-01T13:07:10.030Z,17.02
2024-01-01T13:09:36.972Z,16.83
2024-01-01T13:12:05.436Z,20.20
2024-01-01T13:14:35.078Z,17.45
2024-01-01T13:17:05.384Z,15.52
2024-01-01T13:19:35.508Z,13.23
2024-01-01T13:22:03.155Z,12.57
2024-01-01T13:24:31.048Z,15.35
2024-01-01T13:26:57.781Z,25.52
2024-01-01T13:29:24.483Z,16.88
2024-01-01T13:31:51.346Z,12.70
2024-01-01T13:34:18.038Z,16.23
2024-01-01T13:36:44.653Z,36.72
2024-01-01T13:39:11.304Z,21.38
2024-01-01T13:41:37.917Z,17.45
2024-01-01T13:44:04.719Z,18.65
2024-01-01T13:46:31.224Z,15.95
2024-01-01T13:48:57.806Z,18.73
2024-01-01T13:51:24.388Z,21.90
2024-01-01T13:53:51.954Z,15.25
2024-01-01T13:56:19.903Z,20.50
2024-01-01T13:58:47.221Z,21.92
2024-01-01T14:01:14.186Z,22.75
2024-01-01T14:03:41.983Z,13.70
2024-01-01T14:06:08.908Z,17.38
2024-01-01T14:08:35.636Z,17.60
2024-01-01T14:11:05.283Z,15.00
2024-01-01T14:13:32.145Z,19.60
2024-01-01T14:15:59.593Z,23.63
2024-01-01T14:18:26.617Z,19.27
2024-01-01T14:20:53.297Z,13.55
2024-01-01T14:23:19.965Z,21.52
2024-01-01T14:25:47.938Z,18.58
2024-01-01T14:28:14.658Z,19.95
2024-01-01T14:30:41.329Z,18.92
2024-01-01T14:33:08.322Z,26.70
2024-01-01T14:35:35.666Z,15.90
2024-01-01T14:38:02.351Z,16.02
2024-01-01T14:40:28.978Z,22.40
2024-01-01T14:42:55.576Z,18.33
2024-01-01T14:45:22.115Z,25.45
2024-01-01T14:47:48.936Z,18.30
2024-01-01T14:50:15.757Z,20.30
2024-01-01T14:52:43.526Z,14.85
2024-01-01T14:55:10.420Z,19.80
2024-01-01T14:57:37.072Z,22.70
2024-01-01T15:00:06.193Z,20.85
2024-01-01T15:02:35.259Z,15.88
2024-01-01T15:05:02.592Z,20.10
2024-01-01T15:07:29.283Z,15.35
2024-01-01T15:09:55.805Z,21.48
2024-01-01T15:12:22.436Z,20.67
2024-01-01T15:14:49.020Z,14.55
2024-01-01T15:17:15.708Z,17.60
2024-01-01T15:19:42.537Z,19.02
2024-01-01T15:22:10.183Z,16.50
2024-01-01T15:24:36.811Z,17.60
2024-01-01T15:27:05.592Z,21.58
2024-01-01T15:29:32.618Z,16.25
2024-01-01T15:31:59.612Z,17.48
2024-01-01T15:34:26.432Z,14.95
2024-01-01T15:36:53.158Z,20.77
2024-01-01T15:39:19.891Z,17.90
2024-01-01T15:41:46.661Z,15.43
2024-01-01T15:44:13.344Z,17.92
2024-01-01T15:46:39.945Z,18.35
2024-01-01T15:49:06.695Z,18.98
2024-01-01T15:51:39.227Z,16.63
2024-01-01T15:54:06.968Z,13.00
2024-01-01T15:56:33.744Z,19.85
2024-01-01T15:59:00.946Z,16.40
2024-01-01T16:01:27.868Z,22.08
2024-01-01T16:03:55.807Z,18.25
2024-01-01T16:06:22.985Z,22.85
2024-01-01T16:08:49.626Z,20.52
2024-01-01T16:11:16.429Z,20.20
2024-01-01T16:13:43.259Z,17.63
2024-01-01T16:16:09.866Z,19.20
2024-01-01T16:18:36.590Z,18.08
2024-01-01T16:21:03.292Z,16.65
2024-01-01T16:23:30.011Z,16.48
2024-01-01T16:25:56.739Z,17.42
2024-01-01T16:28:23.330Z,16.88
2024-01-01T16:30:50.031Z,21.67
2024-01-01T16:33:16.980Z,16.75
2024-01-01T16:35:43.664Z,13.63
2024-01-01T16:38:10.385Z,12.93
2024-01-01T16:40:37.005Z,19.10
2024-01-01T16:43:04.189Z,17.38
2024-01-01T16:45:30.892Z,11.13
2024-01-01T16:47:57.558Z,13.45
2024-01-01T16:50:24.992Z,25.55
2024-01-01T16:52:51.651Z,14.07
2024-01-01T16:55:18.270Z,15.18
2024-01-01T16:57:44.952Z,19.65
2024-01-01T17:00:12.264Z,24.85
2024-01-01T17:02:38.955Z,19.02
2024-01-01T17:05:06.409Z,13.05
2024-01-01T17:07:33.063Z,20.42
2024-01-01T17:09:59.741Z,16.30
2024-01-01T17:12:26.297Z,18.58
2024-01-01T17:14:52.873Z,14.65
2024-01-01T17:17:19.474Z,15.65
2024-01-01T17:19:46.168Z,15.55
2024-01-01T17:22:12.819Z,20.63
2024-01-01T17:24:39.449Z,22.98
2024-01-01T17:27:06.046Z,16.85
2024-01-01T17:29:32.790Z,20.17
2024-01-01T17:31:59.515Z,8.55
2024-01-01T17:34:26.059Z,17.25
2024-01-01T17:36:52.625Z,18.75
2024-01-01T17:39:19.708Z,12.15
2024-01-01T17:41:46.220Z,14.15
2024-01-01T17:44:12.872Z,21.65
2024-01-01T17:46:39.473Z,15.07
2024-01-01T17:49:06.155Z,16.98
2024-01-01T17:51:33.003Z,10.98
2024-01-01T17:53:59.691Z,18.67
2024-01-01T17:56:27.090Z,14.20
2024-01-01T17:58:54.879Z,20.67
2024-01-01T18:01:21.605Z,19.25
2024-01-01T18:03:48.175Z,17.95
2024-01-01T18:06:15.032Z,22.02
2024-01-01T18:08:41.741Z,18.92
2024-01-01T18:11:08.505Z,16.58
2024-01-01T18:13:35.547Z,18.80
2024-01-01T18:16:02.494Z,16.92
2024-01-01T18:18:29.831Z,13.10
2024-01-01T18:20:56.581Z,16.27
2024-01-01T18:23:23.327Z,18.10
2024-01-01T18:25:49.989Z,18.08
2024-01-01T18:28:16.527Z,18.25
2024-01-01T18:30:43.827Z,16.70
2024-01-01T18:33:10.739Z,17.25
2024-01-01T18:35:37.506Z,23.33
2024-01-01T18:38:04.495Z,11.57
2024-01-01T18:40:31.258Z,19.45
2024-01-01T18:42:57.960Z,16.70
2024-01-01T18:45:24.693Z,11.95
2024-01-01T18:47:51.720Z,13.38
2024-01-01T18:50:21.330Z,12.70
2024-01-01T18:52:48.100Z,9.85
2024-01-01T18:55:14.731Z,10.98
2024-01-01T18:57:41.392Z,16.70
2024-01-01T19:00:08.876Z,15.75
2024-01-01T19:02:35.561Z,13.73
2024-01-01T19:05:02.487Z,10.27
2024-01-01T19:07:29.257Z,10.90
2024-01-01T19:09:56.875Z,15.60
2024-01-01T19:12:23.608Z,15.77
2024-01-01T19:14:50.154Z,14.82
2024-01-01T19:17:16.699Z,15.27
2024-01-01T19:19:43.239Z,18.75
2024-01-01T19:22:09.917Z,18.60
2024-01-01T19:24:36.492Z,18.23
2024-01-01T19:27:03.134Z,17.95
2024-01-01T19:29:29.680Z,18.92
2024-01-01T19:31:56.330Z,16.02
2024-01-01T19:34:23.049Z,17.63
2024-01-01T19:36:49.872Z,15.15
2024-01-01T19:39:16.582Z,13.63
2024-01-01T19:41:48.527Z,17.25
2024-01-01T19:44:16.253Z,15.90
2024-01-01T19:46:42.964Z,18.65
2024-01-01T19:49:10.765Z,15.38
2024-01-01T19:51:40.819Z,15.80
2024-01-01T19:54:07.818Z,18.05
2024-01-01T19:56:34.442Z,18.85
2024-01-01T19:59:01.445Z,15.60
2024-01-01T20:01:28.080Z,22.85
2024-01-01T20:03:55.469Z,16.17
2024-01-01T20:06:22.262Z,16.92
2024-01-01T20:08:49.069Z,16.38
2024-01-01T20:11:23.704Z,17.75
2024-01-01T20:13:51.026Z,13.07
2024-01-01T20:16:28.552Z,19.92
2024-01-01T20:18:55.809Z,18.08
2024-01-01T20:21:24.495Z,26.83
2024-01-01T20:23:51.653Z,14.88
2024-01-01T20:26:24.663Z,21.83
2024-01-01T20:28:55.589Z,16.80
2024-01-01T20:31:23.339Z,13.73
2024-01-01T20:33:57.014Z,19.52
2024-01-01T20:36:25.586Z,15.93
2024-01-01T20:38:56.559Z,15.43
2024-01-01T20:43:53.915Z,19.65
2024-01-01T20:46:20.913Z,12.30
2024-01-01T20:48:48.120Z,17.38
2024-01-01T20:51:14.814Z,16.35
2024-01-01T20:53:41.899Z,13.88
2024-01-01T20:56:11.885Z,14.80
2024-01-01T20:58:39.584Z,15.23
2024-01-01T21:01:06.647Z,11.80
2024-01-01T21:03:37.188Z,11.77
2024-01-01T21:06:08.353Z,14.50
2024-01-01T21:08:35.317Z,10.40
2024-01-01T21:11:02.309Z,9.23
2024-01-01T21:13:29.860Z,8.30
2024-01-01T21:15:58.576Z,9.50
2024-01-01T21:18:25.477Z,16.98
2024-01-01T21:20:52.308Z,17.38
2024-01-01T21:23:19.120Z,9.93
2024-01-01T21:25:45.821Z,10.35
2024-01-01T21:28:12.479Z,9.63
2024-01-01T21:30:39.198Z,16.63
2024-01-01T21:33:06.414Z,15.68
2024-01-01T21:35:33.207Z,6.65
2024-01-01T21:38:01.910Z,8.52
2024-01-01T21:40:28.503Z,16.25
2024-01-01T21:42:57.942Z,13.65
2024-01-01T21:45:25.200Z,10.65
2024-01-01T21:47:52.050Z,13.45
2024-01-01T21:50:19.985Z,17.52
2024-01-01T21:52:46.589Z,17.20
2024-01-01T21:55:16.539Z,9.13
2024-01-01T21:57:45.689Z,15.98
2024-01-01T22:00:14.385Z,11.90
2024-01-01T22:02:42.840Z,13.32
2024-01-01T22:05:10.632Z,15.00
2024-01-01T22:07:37.847Z,13.27
2024-01-01T22:10:04.706Z,13.23
2024-01-01T22:12:31.196Z,14.85
2024-01-01T22:14:57.759Z,11.15
2024-01-01T22:17:24.455Z,13.43
2024-01-01T22:19:51.096Z,10.68
2024-01-01T22:22:17.670Z,13.07
2024-01-01T22:24:44.211Z,9.27
2024-01-01T22:27:10.871Z,13.02
2024-01-01T22:29:37.468Z,9.07
2024-01-01T22:32:04.668Z,12.52
2024-01-01T22:34:31.342Z,7.43
2024-01-01T22:36:57.861Z,9.25
2024-01-01T22:39:24.411Z,7.30
2024-01-01T22:41:51.067Z,9.45
2024-01-01T22:44:18.530Z,15.40
2024-01-01T22:46:45.109Z,11.95
2024-01-01T22:49:11.873Z,14.20
2024-01-01T22:51:38.669Z,8.73
2024-01-01T22:54:05.330Z,10.65
2024-01-01T22:56:32.086Z,9.00
2024-01-01T22:58:58.793Z,6.90
2024-01-01T23:01:25.513Z,9.27
2024-01-01T23:03:53.686Z,6.13
2024-01-01T23:06:21.134Z,7.85
2024-01-01T23:08:48.011Z,11.55
2024-01-01T23:11:14.651Z,10.23
2024-01-01T23:13:41.667Z,6.75
2024-01-01T23:16:08.625Z,9.73
2024-01-01T23:18:35.558Z,10.45
2024-01-01T23:21:03.512Z,8.15
2024-01-01T23:23:31.015Z,5.45
2024-01-01T23:26:00.477Z,9.35
2024-01-01T23:28:27.023Z,5.70
2024-01-01T23:30:53.672Z,8.00
2024-01-01T23:33:20.547Z,7.30
2024-01-01T23:35:49.142Z,9.27
2024-01-01T23:38:17.687Z,8.25
2024-01-01T23:40:44.251Z,9.27
2024-01-01T23:43:10.857Z,7.15
2024-01-01T23:45:37.528Z,8.23
2024-01-01T23:48:08.408Z,7.40
2024-01-01T23:50:35.765Z,5.63
2024-01-01T23:53:02.917Z,8.52
2024-01-01T23:55:29.655Z,5.90
2024-01-01T23:57:56.234Z,8.82
